Decoded Metar for KNUI (WEBSTER NAVAL in MD, USA) (IATA:NUI) | Meteo·Mobile Aviation Weather
aviador You're here:

KNUI Decoded Metar

WEBSTER NAVAL in MD, USA
Report Time2018-11-19 07:53:00
UTC Time2018-11-19 08:56:27
Flight Rules mvfr MVFR
WindCalm
Visibility6437 m
Phenomena:Mist
Clouds:N/A
CeilingNone
Temp04°C (ISA -11)
Dew Point04°C (100% RH)
AAT2.7°C
QNH1021 hPa
Density Alt-1,467 ft
Elevation23 ft
Report Wrong Elevation
Raw Report
KNUI 190753Z AUTO 00000KT 4SM BR CLR 04/04 A3015 RMK AO2 SLP208
T00390039=

Extra information for KNUI:More info

Metar Taf Metar & Taf Last 4 Metars F.Rules Stats Wind Profile Meteogram Temp Stats Airport Information Weather charts Add Link Nearby VenuesMetar ALERT Operation Metar Decoded Social comments

AIRNAV info for KNUI